Time;durP1;ratioP1;P1;durP2;ratioP2;P2;SDS_P1;SDS_P2;PMS_P1;PMS_P2;Temp;Humidity;BMP_temperature;BMP_pressure;BME280_temperature;BME280_humidity;BME280_pressure;Samples;Min_cycle;Max_cycle;Signal;HPM_P1;HPM_P2
2024/03/25 00:00:27;;;;;;;14.82;2.28;;;;;;;-146.27;82.19;45011.09;5088188;28;20062;-72
2024/03/25 00:02:54;;;;;;;24.33;2.65;;;;;;;-146.27;82.60;45003.16;5097615;28;20028;-72
2024/03/25 00:05:22;;;;;;;21.58;2.92;;;;;;;-146.27;83.36;44995.19;5091134;28;20089;-72
2024/03/25 00:07:48;;;;;;;15.40;2.53;;;;;;;-146.27;83.71;45015.09;5085383;28;20084;-72
2024/03/25 00:10:14;;;;;;;13.40;2.50;;;;;;;-146.27;83.85;45034.97;5088596;28;20106;-71
2024/03/25 00:12:39;;;;;;;20.80;3.28;;;;;;;-146.27;84.10;45025.03;5081092;28;20106;-72
2024/03/25 00:15:05;;;;;;;18.85;2.65;;;;;;;-146.27;83.77;45007.13;5084113;28;20027;-72
2024/03/25 00:17:30;;;;;;;17.08;3.65;;;;;;;-146.27;84.37;45023.03;5088092;28;20043;-72
2024/03/25 00:19:56;;;;;;;16.92;2.70;;;;;;;-146.27;84.70;45015.09;5088132;28;20024;-71
2024/03/25 00:22:22;;;;;;;16.10;3.35;;;;;;;-146.27;85.01;45009.13;5086789;28;20028;-72
2024/03/25 00:24:48;;;;;;;18.70;2.53;;;;;;;-146.27;84.84;45021.06;5077609;28;20024;-72
2024/03/25 00:27:16;;;;;;;16.42;2.53;;;;;;;-146.27;84.88;45036.97;5084924;28;20117;-70
2024/03/25 00:29:42;;;;;;;18.42;2.95;;;;;;;-146.27;85.02;45013.09;5088894;28;20650;-71
2024/03/25 00:32:07;;;;;;;22.35;2.58;;;;;;;-146.27;85.53;45027.03;5091743;28;20031;-72
2024/03/25 00:34:34;;;;;;;12.65;2.28;;;;;;;-146.27;85.50;45011.09;5080625;28;20523;-72
2024/03/25 00:37:00;;;;;;;14.50;2.10;;;;;;;-146.27;85.42;45023.03;5085997;28;20491;-72
2024/03/25 00:39:26;;;;;;;12.82;2.15;;;;;;;-146.27;85.65;45027.03;5077274;28;20103;-73
2024/03/25 00:41:52;;;;;;;16.70;2.67;;;;;;;-146.27;85.79;44999.16;5079263;28;20073;-72
2024/03/25 00:44:17;;;;;;;11.50;2.20;;;;;;;-146.27;86.34;44983.25;5087032;28;20024;-71
2024/03/25 00:46:43;;;;;;;16.02;2.22;;;;;;;-146.27;86.62;44965.34;5079480;28;20503;-72
2024/03/25 00:49:09;;;;;;;27.02;3.88;;;;;;;-146.27;86.51;44987.22;5072850;28;20516;-72
2024/03/25 00:51:35;;;;;;;18.13;2.45;;;;;;;-146.27;86.52;44981.25;5083766;28;20024;-72
2024/03/25 00:54:01;;;;;;;16.38;2.60;;;;;;;-146.27;86.51;45011.09;5090536;28;20507;-72
2024/03/25 00:56:26;;;;;;;16.45;2.38;;;;;;;-146.27;86.62;45009.13;5096006;28;20067;-72
2024/03/25 00:58:51;;;;;;;26.60;2.92;;;;;;;-146.27;86.58;44985.22;5086282;28;20023;-72
2024/03/25 01:01:17;;;;;;;13.68;2.65;;;;;;;-146.27;86.75;44979.25;5090967;28;20042;-72
2024/03/25 01:03:42;;;;;;;11.90;2.00;;;;;;;-146.27;86.87;44995.19;5087193;28;20085;-72
2024/03/25 01:06:07;;;;;;;18.17;2.28;;;;;;;-146.27;87.14;44961.34;5092873;28;20063;-72
2024/03/25 01:08:33;;;;;;;22.10;3.20;;;;;;;-146.27;87.25;44963.34;5091333;28;20020;-71
2024/03/25 01:10:58;;;;;;;15.43;2.22;;;;;;;-146.27;87.04;44931.50;5081884;28;20035;-73
2024/03/25 01:13:23;;;;;;;16.25;2.67;;;;;;;-146.27;86.81;44927.53;5090044;28;20082;-72
2024/03/25 01:15:49;;;;;;;15.05;2.38;;;;;;;-146.27;87.02;44965.34;5088151;28;20224;-72
2024/03/25 01:18:14;;;;;;;19.05;2.42;;;;;;;-146.27;86.96;44947.41;5089816;28;20037;-72
2024/03/25 01:20:39;;;;;;;15.93;2.53;;;;;;;-146.27;87.42;44937.47;5106065;28;20032;-72
2024/03/25 01:23:05;;;;;;;17.70;2.95;;;;;;;-146.27;87.27;44927.53;5086897;28;20276;-72
2024/03/25 01:25:30;;;;;;;15.93;2.33;;;;;;;-146.27;87.08;44927.53;5085337;28;20068;-72
2024/03/25 01:27:56;;;;;;;13.02;2.55;;;;;;;-146.27;87.48;44897.66;5092579;28;20023;-72
2024/03/25 01:30:22;;;;;;;9.95;2.25;;;;;;;-146.27;87.21;44915.59;5093634;28;20055;-72
2024/03/25 01:32:49;;;;;;;16.80;2.50;;;;;;;-146.27;87.22;44913.59;5091541;28;20093;-72
2024/03/25 01:35:15;;;;;;;20.30;2.88;;;;;;;-146.27;87.01;44929.50;5089880;28;20036;-71
2024/03/25 01:37:41;;;;;;;15.07;2.85;;;;;;;-146.27;86.88;44931.50;5096347;28;20030;-71
2024/03/25 01:40:09;;;;;;;17.90;2.75;;;;;;;-146.27;86.82;44967.31;5088775;28;20394;-71
2024/03/25 01:42:35;;;;;;;12.23;2.22;;;;;;;-146.27;86.98;44931.50;5090795;28;20104;-71
2024/03/25 01:45:01;;;;;;;11.10;2.22;;;;;;;-146.27;87.37;44915.59;5089103;28;20056;-71
2024/03/25 01:47:27;;;;;;;20.25;3.42;;;;;;;-146.27;87.38;44927.53;5088252;28;20027;-72
2024/03/25 01:49:55;;;;;;;17.95;1.85;;;;;;;-146.27;87.72;44903.66;5086159;28;20526;-72
2024/03/25 01:52:22;;;;;;;15.13;2.55;;;;;;;-146.27;87.55;44895.69;5089958;28;20307;-73
2024/03/25 01:54:49;;;;;;;17.40;2.05;;;;;;;-146.27;87.53;44897.66;5087272;28;20028;-71
2024/03/25 01:57:15;;;;;;;12.98;2.22;;;;;;;-146.27;87.60;44887.72;5088322;28;20024;-72
2024/03/25 01:59:40;;;;;;;11.55;2.10;;;;;;;-146.27;87.66;44881.75;5087043;28;20051;-72
2024/03/25 02:02:06;;;;;;;12.60;1.98;;;;;;;-146.27;87.29;44907.63;5092231;28;20016;-72
2024/03/25 02:04:32;;;;;;;17.17;1.85;;;;;;;-146.27;87.29;44923.53;5090951;28;20020;-71
2024/03/25 02:06:58;;;;;;;12.50;2.17;;;;;;;-146.27;87.08;44957.38;5097824;28;20506;-72
2024/03/25 02:09:24;;;;;;;8.00;2.00;;;;;;;-146.27;87.39;44911.59;5090840;28;20024;-72
2024/03/25 02:11:51;;;;;;;16.83;2.10;;;;;;;-146.27;87.27;44935.47;5083620;28;20016;-72
2024/03/25 02:14:16;;;;;;;16.73;2.58;;;;;;;-146.27;87.80;44895.69;5089919;28;20034;-71
2024/03/25 02:16:42;;;;;;;15.43;2.80;;;;;;;-146.27;88.16;44871.81;5089698;28;20118;-71
2024/03/25 02:19:08;;;;;;;23.95;2.60;;;;;;;-146.27;88.09;44877.78;5078233;28;20535;-71
2024/03/25 02:21:35;;;;;;;18.20;3.00;;;;;;;-146.27;87.89;44883.75;5082139;28;20078;-71
2024/03/25 02:24:07;;;;;;;9.15;2.22;;;;;;;-146.27;87.84;44879.75;5086902;28;20020;-71
2024/03/25 02:26:33;;;;;;;10.45;1.90;;;;;;;-146.27;87.59;44907.63;5077036;28;20408;-71
2024/03/25 02:28:58;;;;;;;16.70;2.47;;;;;;;-146.27;87.58;44889.72;5086166;28;20028;-71
2024/03/25 02:31:23;;;;;;;19.70;2.10;;;;;;;-146.27;87.63;44899.66;5085806;28;20089;-71
2024/03/25 02:33:49;;;;;;;13.80;2.20;;;;;;;-146.27;87.46;44917.56;5091643;28;20035;-71
2024/03/25 02:36:14;;;;;;;16.20;3.10;;;;;;;-146.27;88.05;44891.69;5094595;28;20431;-70
2024/03/25 02:38:40;;;;;;;23.10;2.70;;;;;;;-146.27;87.90;44903.66;5080352;28;20111;-71
2024/03/25 02:41:06;;;;;;;19.50;2.92;;;;;;;-146.27;88.08;44879.75;5088086;28;20032;-72
2024/03/25 02:43:31;;;;;;;14.52;2.15;;;;;;;-146.27;87.87;44869.81;5091716;28;20019;-72
2024/03/25 02:45:57;;;;;;;12.13;2.42;;;;;;;-146.27;87.62;44927.53;5076489;28;20154;-71
2024/03/25 02:48:22;;;;;;;15.25;1.92;;;;;;;-146.27;87.26;44919.56;5084064;28;20140;-71
2024/03/25 02:50:48;;;;;;;26.35;2.50;;;;;;;-146.27;87.77;44919.56;5085376;28;20504;-72
2024/03/25 02:53:13;;;;;;;10.93;2.05;;;;;;;-146.27;88.13;44891.69;5079477;28;20038;-71
2024/03/25 02:55:38;;;;;;;18.70;3.78;;;;;;;-146.27;87.68;44903.66;5093416;28;20713;-72
2024/03/25 02:58:03;;;;;;;16.27;2.17;;;;;;;-146.27;87.84;44921.56;5090120;28;20031;-71
2024/03/25 03:00:29;;;;;;;15.38;2.63;;;;;;;-146.27;87.78;44921.56;5102018;28;20055;-72
2024/03/25 03:02:54;;;;;;;12.80;2.30;;;;;;;-146.27;87.70;44905.63;5088036;28;20056;-71
2024/03/25 03:05:20;;;;;;;15.82;2.67;;;;;;;-146.27;87.54;44917.56;5089980;28;20032;-71
2024/03/25 03:07:45;;;;;;;22.48;2.38;;;;;;;-146.27;87.53;44919.56;5097608;28;20062;-72
2024/03/25 03:10:10;;;;;;;15.32;2.45;;;;;;;-146.27;87.88;44915.59;5092004;28;20027;-72
2024/03/25 03:12:35;;;;;;;16.35;2.08;;;;;;;-146.27;88.12;44887.72;5096162;28;20082;-73
2024/03/25 03:18:22;;;;;;;8.65;2.10;;;;;;;-146.27;87.86;44877.78;5086291;28;20043;-73
2024/03/25 03:20:49;;;;;;;11.77;2.08;;;;;;;-146.27;88.32;44875.78;5089271;28;20020;-72
2024/03/25 03:23:14;;;;;;;16.95;2.42;;;;;;;-146.27;88.35;44843.94;5081350;28;20021;-72
2024/03/25 03:25:40;;;;;;;7.43;2.25;;;;;;;-146.27;87.59;44863.84;5083519;28;20113;-72
2024/03/25 03:28:06;;;;;;;32.00;2.90;;;;;;;-146.27;87.85;44881.75;5077394;28;20027;-72
2024/03/25 03:30:31;;;;;;;14.95;2.30;;;;;;;-146.27;87.83;44887.72;5080984;28;20063;-73
2024/03/25 03:32:56;;;;;;;15.45;3.28;;;;;;;-146.27;87.92;44881.75;5084765;28;20459;-72
2024/03/25 03:35:22;;;;;;;16.35;3.13;;;;;;;-146.27;88.10;44871.81;5088683;28;20096;-72
2024/03/25 03:37:47;;;;;;;15.43;2.83;;;;;;;-146.27;87.89;44869.81;5087464;28;20028;-73
2024/03/25 03:40:14;;;;;;;11.90;2.45;;;;;;;-146.27;88.38;44861.84;5081083;28;20107;-73
2024/03/25 03:56:50;;;;;;;20.45;3.63;;;;;;;-146.27;88.40;44859.88;5079722;28;20117;-72
2024/03/25 04:09:23;;;;;;;15.23;3.40;;;;;;;-146.27;88.67;44808.13;5083791;28;20047;-72
2024/03/25 04:11:49;;;;;;;14.23;3.50;;;;;;;-146.27;88.56;44786.25;5086772;28;20729;-72
2024/03/25 04:14:14;;;;;;;15.38;3.38;;;;;;;-146.27;89.13;44784.25;5083862;28;20023;-74
2024/03/25 04:17:21;;;;;;;11.80;3.53;;;;;;;-146.27;89.13;44770.31;5077205;28;20078;-73
2024/03/25 04:19:46;;;;;;;15.95;3.15;;;;;;;-146.27;88.83;44786.25;5085396;28;20336;-73
2024/03/25 04:22:12;;;;;;;16.77;2.75;;;;;;;-146.27;88.56;44778.28;5074856;28;20029;-72
2024/03/25 04:24:37;;;;;;;13.80;3.67;;;;;;;-146.27;88.81;44762.34;5079371;28;20467;-72
2024/03/25 04:27:03;;;;;;;19.17;3.35;;;;;;;-146.27;89.10;44770.31;5073049;28;20105;-72
2024/03/25 04:29:29;;;;;;;34.80;3.35;;;;;;;-146.27;89.47;44744.44;5083304;28;20024;-73
2024/03/25 04:31:54;;;;;;;14.45;2.70;;;;;;;-146.27;89.29;44740.47;5073833;28;20021;-73
2024/03/25 04:34:20;;;;;;;14.82;3.28;;;;;;;-146.27;89.01;44764.34;5087267;28;20028;-72
2024/03/25 04:36:46;;;;;;;14.60;3.33;;;;;;;-146.27;88.80;44772.31;5091796;28;20540;-72
2024/03/25 04:39:11;;;;;;;10.70;3.47;;;;;;;-146.27;88.87;44772.31;5087714;28;20024;-73
2024/03/25 04:41:36;;;;;;;20.13;4.18;;;;;;;-146.27;88.71;44784.25;5075930;28;20033;-72
2024/03/25 04:44:02;;;;;;;16.73;4.20;;;;;;;-146.27;89.13;44772.31;5083547;28;20093;-72
2024/03/25 04:46:27;;;;;;;15.50;4.28;;;;;;;-146.27;89.18;44740.47;5089376;28;20016;-73
2024/03/25 04:48:53;;;;;;;11.05;3.47;;;;;;;-146.27;88.67;44764.34;5089630;28;20036;-70
2024/03/25 04:51:19;;;;;;;15.77;3.75;;;;;;;-146.27;88.67;44788.22;5094233;28;20468;-73
2024/03/25 04:53:44;;;;;;;18.52;3.92;;;;;;;-146.27;88.25;44796.19;5081210;28;20568;-72
2024/03/25 04:56:10;;;;;;;18.05;3.78;;;;;;;-146.27;88.82;44772.31;5089260;28;20987;-73
2024/03/25 04:58:36;;;;;;;13.55;3.33;;;;;;;-146.27;88.82;44778.28;5088123;28;20483;-72
2024/03/25 05:01:01;;;;;;;21.20;4.38;;;;;;;-146.27;88.66;44796.19;5077648;28;20059;-72
2024/03/25 05:03:26;;;;;;;19.95;4.32;;;;;;;-146.27;88.50;44764.34;5097961;28;20031;-72
2024/03/25 05:05:52;;;;;;;19.83;4.70;;;;;;;-146.27;89.05;44762.34;5092663;28;20077;-72
2024/03/25 05:08:17;;;;;;;9.55;3.08;;;;;;;-146.27;88.79;44762.34;5096274;28;20665;-73
2024/03/25 05:10:42;;;;;;;16.85;4.18;;;;;;;-146.27;88.43;44800.16;5088909;28;20020;-73
2024/03/25 05:13:08;;;;;;;15.07;3.90;;;;;;;-146.27;88.96;44774.28;5089279;28;20016;-72
2024/03/25 05:15:33;;;;;;;15.38;3.65;;;;;;;-146.27;88.76;44780.25;5089029;28;20111;-73
2024/03/25 05:17:58;;;;;;;15.07;4.15;;;;;;;-146.27;89.28;44772.31;5077892;28;20601;-73
2024/03/25 05:20:24;;;;;;;16.83;3.97;;;;;;;-146.27;89.08;44752.41;5091193;28;20537;-73
2024/03/25 05:22:49;;;;;;;16.52;3.55;;;;;;;-146.27;89.34;44752.41;5090906;28;20878;-72
2024/03/25 05:25:15;;;;;;;10.82;3.72;;;;;;;-146.27;88.54;44746.44;5095979;28;20142;-72
2024/03/25 05:27:40;;;;;;;10.75;3.63;;;;;;;-146.27;89.02;44764.34;5094146;28;20056;-72
2024/03/25 05:30:09;;;;;;;33.38;4.18;;;;;;;-146.27;89.06;44760.38;5090093;28;20063;-73
2024/03/25 05:32:34;;;;;;;14.25;4.22;;;;;;;-146.27;88.47;44816.09;5084936;28;20088;-72
2024/03/25 05:35:00;;;;;;;20.33;4.68;;;;;;;-146.27;88.62;44792.22;5076186;28;20032;-72
2024/03/25 05:37:25;;;;;;;12.00;3.97;;;;;;;-146.27;88.99;44816.09;5091062;28;20387;-72
2024/03/25 05:39:50;;;;;;;26.40;3.97;;;;;;;-146.27;89.15;44808.13;5093885;28;21008;-74
2024/03/25 05:42:16;;;;;;;14.68;3.72;;;;;;;-146.27;88.54;44786.25;5086218;28;20455;-73
2024/03/25 05:44:41;;;;;;;23.55;5.75;;;;;;;-146.27;88.51;44845.94;5075509;28;20020;-73
2024/03/25 05:47:06;;;;;;;22.48;4.97;;;;;;;-146.27;89.26;44796.19;5088484;28;20040;-72
2024/03/25 05:49:32;;;;;;;20.42;4.28;;;;;;;-146.27;89.50;44828.03;5086124;28;20040;-72
2024/03/25 05:51:57;;;;;;;21.75;4.47;;;;;;;-146.27;89.27;44800.16;5086759;28;20565;-72
2024/03/25 05:54:23;;;;;;;22.30;4.88;;;;;;;-146.27;88.93;44847.91;5084234;28;20020;-73
2024/03/25 05:56:48;;;;;;;19.80;4.57;;;;;;;-146.27;89.48;44839.97;5092526;28;20020;-72
2024/03/25 05:59:13;;;;;;;19.65;4.47;;;;;;;-146.27;89.27;44843.94;5075371;28;20043;-73
2024/03/25 06:01:40;;;;;;;22.02;4.70;;;;;;;-146.27;89.22;44879.75;5103793;28;20023;-73
2024/03/25 06:04:05;;;;;;;21.50;5.95;;;;;;;-146.27;88.92;44907.63;5095495;28;20096;-71
2024/03/25 06:06:32;;;;;;;17.95;4.78;;;;;;;-146.27;89.09;44901.66;5090551;28;20114;-73
2024/03/25 06:08:58;;;;;;;16.67;5.75;;;;;;;-146.27;89.44;44873.78;5082324;28;20035;-73
2024/03/25 06:11:23;;;;;;;11.27;4.43;;;;;;;-146.27;89.18;44909.63;5094867;28;20484;-73
2024/03/25 06:13:48;;;;;;;15.68;4.93;;;;;;;-146.27;88.97;44943.44;5088442;28;20024;-73
2024/03/25 06:16:14;;;;;;;11.77;5.18;;;;;;;-146.27;89.13;44911.59;5090995;28;20024;-72
2024/03/25 06:18:40;;;;;;;24.05;5.50;;;;;;;-146.27;89.42;44905.63;5082597;28;20032;-72
2024/03/25 06:21:05;;;;;;;18.77;4.55;;;;;;;-146.27;89.56;44921.56;5104199;28;20024;-72
2024/03/25 06:23:31;;;;;;;16.83;5.30;;;;;;;-146.27;89.54;44899.66;5083100;28;20040;-73
2024/03/25 06:25:56;;;;;;;20.77;5.05;;;;;;;-146.27;89.82;44907.63;5084843;28;20048;-73
2024/03/25 06:28:22;;;;;;;20.80;5.13;;;;;;;-146.27;89.77;44935.47;5090421;28;20042;-73
2024/03/25 06:36:17;;;;;;;;;;;;;;;-146.27;89.62;44997.16;5092698;28;20047;-73
2024/03/25 06:38:42;;;;;;;26.70;4.85;;;;;;;-146.27;89.49;44987.22;5071818;28;19909;-73
2024/03/25 06:41:08;;;;;;;29.63;7.05;;;;;;;-146.27;89.44;44969.31;5084654;28;20028;-74
2024/03/25 06:43:34;;;;;;;19.70;5.75;;;;;;;-146.27;89.72;44999.16;5089461;28;20583;-74
2024/03/25 06:45:59;;;;;;;16.55;4.85;;;;;;;-146.27;89.78;44981.25;5091989;28;20052;-75
2024/03/25 06:48:25;;;;;;;19.75;5.25;;;;;;;-146.27;89.66;45005.13;5089363;28;20032;-75
2024/03/25 06:50:58;;;;;;;25.23;5.05;;;;;;;-146.27;89.69;44953.38;5083444;28;20027;-73
2024/03/25 06:53:24;;;;;;;17.92;4.63;;;;;;;-146.27;89.44;44965.34;5085815;28;20076;-74
2024/03/25 06:55:56;;;;;;;25.02;5.68;;;;;;;-146.27;89.51;44995.19;5090695;28;20115;-75
2024/03/25 06:58:22;;;;;;;18.63;4.28;;;;;;;-146.27;89.46;44971.31;5092165;28;20655;-74
2024/03/25 07:00:48;;;;;;;19.15;4.95;;;;;;;-146.27;89.51;44979.25;5079123;28;20539;-75
2024/03/25 07:03:15;;;;;;;14.43;5.15;;;;;;;-146.27;89.73;44923.53;5083307;28;20028;-74
2024/03/25 07:05:40;;;;;;;12.65;4.40;;;;;;;-146.27;89.55;44937.47;5086219;28;20396;-74
2024/03/25 07:08:06;;;;;;;24.77;4.65;;;;;;;-146.27;89.62;44903.66;5089971;28;20035;-75
2024/03/25 07:10:31;;;;;;;20.92;4.38;;;;;;;-146.27;89.46;44905.63;5089993;28;20099;-74
2024/03/25 07:12:57;;;;;;;16.90;3.92;;;;;;;-146.27;89.60;44871.81;5094551;28;20435;-74
2024/03/25 07:15:22;;;;;;;22.65;4.55;;;;;;;-146.27;89.57;44889.72;5090788;28;20762;-75
2024/03/25 07:17:47;;;;;;;25.70;4.45;;;;;;;-146.27;89.85;44841.94;5080252;28;20549;-75
2024/03/25 07:20:13;;;;;;;33.92;4.72;;;;;;;-146.27;89.46;44824.03;5088343;28;20063;-75
2024/03/25 07:22:38;;;;;;;21.67;4.35;;;;;;;-146.27;89.40;44839.97;5104738;28;20443;-75
2024/03/25 07:25:04;;;;;;;15.43;3.53;;;;;;;-146.27;89.42;44812.09;5085171;28;20113;-74
2024/03/25 07:27:29;;;;;;;28.83;4.57;;;;;;;-146.27;89.44;44796.19;5095442;28;20115;-74
2024/03/25 07:29:55;;;;;;;26.23;6.53;;;;;;;-146.27;89.72;44788.22;5091634;28;20028;-74
2024/03/25 07:32:20;;;;;;;26.42;4.68;;;;;;;-146.27;89.61;44792.22;5088991;28;20016;-73
2024/03/25 07:34:46;;;;;;;23.80;4.25;;;;;;;-146.27;89.33;44772.31;5089174;28;20030;-74
2024/03/25 07:37:11;;;;;;;20.25;4.43;;;;;;;-146.27;89.60;44774.28;5076080;28;20058;-75
2024/03/25 07:39:36;;;;;;;22.48;4.78;;;;;;;-146.27;89.54;44728.53;5077277;28;20028;-75
2024/03/25 07:42:02;;;;;;;27.58;5.05;;;;;;;-146.27;89.41;44740.47;5093858;28;20024;-74
2024/03/25 07:44:30;;;;;;;31.52;5.85;;;;;;;-146.27;89.32;44718.56;5089144;28;20024;-72
2024/03/25 07:46:56;;;;;;;23.67;5.80;;;;;;;-146.27;89.31;44714.59;5070094;28;20031;-73
2024/03/25 07:49:21;;;;;;;22.17;6.20;;;;;;;-146.27;89.52;44692.72;5080232;28;20028;-72
2024/03/25 07:51:46;;;;;;;18.50;5.85;;;;;;;-146.27;89.26;44684.75;5090232;28;20019;-73
2024/03/25 07:54:16;;;;;;;22.30;6.82;;;;;;;-146.27;89.34;44682.75;5089549;28;20546;-73
2024/03/25 07:56:42;;;;;;;23.08;6.20;;;;;;;-146.27;89.26;44644.94;5088474;28;20036;-73
2024/03/25 07:59:07;;;;;;;18.92;5.70;;;;;;;-146.27;89.10;44654.91;5090091;28;20077;-72
2024/03/25 08:01:33;;;;;;;23.35;7.05;;;;;;;-146.27;88.86;44621.06;5089966;28;20032;-72
2024/03/25 08:03:58;;;;;;;22.17;6.85;;;;;;;-146.27;88.51;44637.00;5081996;28;20074;-73
2024/03/25 08:06:23;;;;;;;22.30;7.40;;;;;;;-146.27;88.44;44637.00;5090531;28;20031;-72
2024/03/25 08:08:49;;;;;;;30.17;6.25;;;;;;;-146.27;88.13;44640.97;5090208;28;20545;-72
2024/03/25 08:11:14;;;;;;;27.90;7.35;;;;;;;-146.27;87.89;44625.06;5090342;28;20058;-72
2024/03/25 08:13:40;;;;;;;33.33;7.20;;;;;;;-146.27;87.86;44650.94;5082910;28;20028;-72
2024/03/25 08:16:05;;;;;;;26.40;7.07;;;;;;;-146.27;87.63;44644.94;5070204;28;20040;-73
2024/03/25 08:18:31;;;;;;;21.80;7.30;;;;;;;-146.27;87.46;44652.91;5079854;28;20055;-73
2024/03/25 08:20:56;;;;;;;27.60;7.50;;;;;;;-146.27;87.08;44652.91;5088570;28;20051;-73
2024/03/25 08:23:21;;;;;;;21.90;7.40;;;;;;;-146.27;87.10;44621.06;5089432;28;20123;-74
2024/03/25 08:25:47;;;;;;;25.77;8.00;;;;;;;-146.27;87.38;44642.97;5093819;28;20470;-73
2024/03/25 08:28:12;;;;;;;25.25;8.43;;;;;;;-146.27;87.13;44613.13;5093691;28;20526;-72
2024/03/25 08:30:37;;;;;;;20.92;9.02;;;;;;;-146.27;87.28;44611.13;5094296;28;20503;-74
2024/03/25 08:33:06;;;;;;;25.92;9.50;;;;;;;-146.27;86.97;44629.03;5092456;28;20024;-74
2024/03/25 08:35:31;;;;;;;21.48;8.98;;;;;;;-146.27;86.41;44617.09;5103963;28;20028;-73
2024/03/25 08:37:56;;;;;;;22.50;8.93;;;;;;;-146.27;86.29;44637.00;5094349;28;20020;-74
2024/03/25 08:40:22;;;;;;;25.67;10.45;;;;;;;-146.27;85.88;44617.09;5075861;28;20085;-73
2024/03/25 08:42:47;;;;;;;22.10;11.20;;;;;;;-146.27;85.75;44627.03;5093339;28;20039;-73
2024/03/25 08:45:12;;;;;;;28.27;10.55;;;;;;;-146.27;85.56;44613.13;5094170;28;20038;-74
2024/03/25 08:47:38;;;;;;;22.33;12.07;;;;;;;-146.27;85.45;44597.19;5094146;28;20028;-73
2024/03/25 08:50:04;;;;;;;34.08;10.98;;;;;;;-146.27;84.53;44619.09;5093825;28;20024;-74
2024/03/25 08:52:29;;;;;;;23.83;10.18;;;;;;;-146.27;84.07;44637.00;5089346;28;20047;-74
2024/03/25 08:54:55;;;;;;;32.88;11.90;;;;;;;-146.27;83.06;44704.66;5093341;28;20471;-73
2024/03/25 08:57:20;;;;;;;26.63;10.23;;;;;;;-146.27;82.34;44690.72;5093528;28;20032;-74
2024/03/25 08:59:46;;;;;;;15.80;9.10;;;;;;;-146.27;82.06;44718.56;5093909;28;20035;-73
2024/03/25 09:02:12;;;;;;;20.92;9.57;;;;;;;-146.27;81.73;44696.69;5091345;28;20412;-73
2024/03/25 09:04:37;;;;;;;25.15;10.48;;;;;;;-146.27;81.60;44702.66;5089049;28;20032;-73
2024/03/25 09:07:03;;;;;;;22.65;9.13;;;;;;;-146.27;80.37;44724.56;5093738;28;20069;-74
2024/03/25 09:12:12;;;;;;;24.42;9.00;;;;;;;-146.27;78.33;44782.25;5090503;28;20081;-74
2024/03/25 09:14:38;;;;;;;20.25;8.90;;;;;;;-146.27;78.84;44756.38;5094314;28;20114;-73
2024/03/25 09:17:04;;;;;;;16.73;6.35;;;;;;;-146.27;77.74;44818.06;5093282;28;20738;-72
2024/03/25 09:19:29;;;;;;;21.35;8.13;;;;;;;-146.27;76.22;44893.69;5080901;28;20028;-72
2024/03/25 09:21:54;;;;;;;17.00;8.50;;;;;;;-146.27;75.84;44889.72;5089999;28;20179;-73
2024/03/25 09:24:20;;;;;;;17.00;7.93;;;;;;;-146.27;75.88;44867.81;5090304;28;20104;-73
2024/03/25 09:26:49;;;;;;;20.77;5.95;;;;;;;-146.27;75.26;44841.94;5093074;28;20035;-74
2024/03/25 09:29:14;;;;;;;14.30;6.03;;;;;;;-146.27;73.12;44979.25;5093029;28;20107;-73
2024/03/25 09:31:40;;;;;;;22.85;7.85;;;;;;;-146.27;73.07;44999.16;5093025;28;20127;-73
2024/03/25 09:34:05;;;;;;;11.98;5.53;;;;;;;-146.27;71.37;45080.75;5082107;28;20086;-72
2024/03/25 09:36:31;;;;;;;13.63;5.97;;;;;;;-146.27;70.95;45076.78;5081270;28;20026;-74
2024/03/25 09:38:56;;;;;;;14.00;6.05;;;;;;;-146.27;70.56;45086.72;5088228;28;20107;-73
2024/03/25 09:41:22;;;;;;;13.35;5.68;;;;;;;-146.27;69.51;45130.50;5085351;28;20032;-73
2024/03/25 09:43:53;;;;;;;9.35;5.57;;;;;;;-146.27;68.48;45176.28;5084805;28;20497;-73
2024/03/25 09:46:19;;;;;;;17.58;6.47;;;;;;;-146.27;66.71;45230.00;5077453;28;20396;-74
2024/03/25 09:48:44;;;;;;;16.02;6.22;;;;;;;-146.27;67.33;45124.53;5077182;28;20016;-75
2024/03/25 09:51:10;;;;;;;19.17;6.22;;;;;;;-146.27;65.15;45249.91;5089891;28;21437;-74
2024/03/25 09:53:36;;;;;;;13.13;6.07;;;;;;;-146.27;64.71;45232.00;5075150;28;20031;-72
2024/03/25 09:56:01;;;;;;;14.52;6.15;;;;;;;-146.27;64.36;45245.94;5088954;28;20693;-72
2024/03/25 09:58:28;;;;;;;16.77;8.02;;;;;;;-146.27;63.18;45353.41;5092627;28;20437;-73
2024/03/25 10:00:55;;;;;;;13.80;6.63;;;;;;;-146.27;64.76;45263.84;5091769;28;20476;-74
2024/03/25 10:03:20;;;;;;;13.27;6.95;;;;;;;-146.27;63.15;45383.25;5072544;28;20052;-73
2024/03/25 10:05:46;;;;;;;14.93;7.20;;;;;;;-146.27;62.75;45397.19;5091698;28;20070;-73
2024/03/25 10:08:11;;;;;;;23.75;8.27;;;;;;;-146.27;64.75;45369.31;5092783;28;20103;-72
2024/03/25 10:10:45;;;;;;;18.48;8.38;;;;;;;-146.27;64.01;45349.41;5092323;28;20024;-69
2024/03/25 10:13:10;;;;;;;16.08;8.57;;;;;;;-146.27;64.15;45411.13;5091829;28;20477;-68
2024/03/25 10:15:42;;;;;;;18.30;8.68;;;;;;;-146.27;64.57;45381.25;5091627;28;20114;-69
2024/03/25 10:18:09;;;;;;;17.33;9.02;;;;;;;-146.27;64.77;45385.25;5090011;28;20024;-69
2024/03/25 10:20:34;;;;;;;16.67;8.30;;;;;;;-146.27;65.00;45377.28;5092695;28;20145;-71
2024/03/25 10:23:00;;;;;;;18.85;8.60;;;;;;;-146.27;64.18;45458.88;5089037;28;20030;-69
2024/03/25 10:25:30;;;;;;;15.05;7.80;;;;;;;-146.27;65.84;45381.25;5091672;28;20052;-70
2024/03/25 10:28:03;;;;;;;17.15;8.95;;;;;;;-146.27;63.33;45419.09;5092426;28;20031;-69
2024/03/25 10:30:29;;;;;;;20.23;9.30;;;;;;;-146.27;65.17;45351.41;5078330;28;20484;-69
2024/03/25 10:33:03;;;;;;;17.00;9.02;;;;;;;-146.27;62.93;45385.25;5092112;28;20510;-69
2024/03/25 10:35:30;;;;;;;22.02;8.82;;;;;;;-146.27;63.73;45315.59;5092107;28;20518;-70
2024/03/25 10:37:59;;;;;;;17.98;9.68;;;;;;;-146.27;64.38;45226.03;5092601;28;20028;-68
2024/03/25 10:40:30;;;;;;;22.70;9.30;;;;;;;-146.27;61.06;45281.75;5096670;28;20035;-69
2024/03/25 10:43:11;;;;;;;19.08;9.85;;;;;;;-146.27;61.06;45251.91;5090026;28;20036;-69
2024/03/25 10:45:46;;;;;;;19.58;10.45;;;;;;;-146.27;59.56;45226.03;5091690;28;20027;-69
2024/03/25 10:48:21;;;;;;;16.80;9.90;;;;;;;-146.27;59.22;45216.09;5093080;28;20052;-68
2024/03/25 10:50:47;;;;;;;21.77;8.88;;;;;;;-146.27;59.89;45190.22;5091597;28;20020;-69
2024/03/25 10:53:17;;;;;;;15.82;7.85;;;;;;;-146.27;53.21;45397.19;5062411;28;20031;-70
2024/03/25 10:55:44;;;;;;;21.27;9.63;;;;;;;-146.27;50.63;45472.81;5088596;28;20099;-69
2024/03/25 10:58:11;;;;;;;18.48;8.88;;;;;;;-146.27;51.88;45516.59;5074337;28;20032;-69
2024/03/25 11:00:37;;;;;;;18.02;10.13;;;;;;;-146.27;50.76;45500.69;5092819;28;20031;-69
2024/03/25 11:03:02;;;;;;;18.23;10.05;;;;;;;-146.27;51.62;45446.94;5074540;28;20550;-69
2024/03/25 11:05:29;;;;;;;18.00;9.90;;;;;;;-146.27;51.38;45423.06;5064897;28;20017;-69
2024/03/25 11:07:54;;;;;;;19.10;9.30;;;;;;;-146.27;48.95;45494.72;5054458;28;20547;-69
2024/03/25 11:10:28;;;;;;;17.17;8.90;;;;;;;-146.27;46.63;45701.69;5072426;28;20051;-68
2024/03/25 11:12:54;;;;;;;16.67;8.80;;;;;;;-146.27;45.84;45709.66;5054543;28;20476;-68
2024/03/25 11:15:19;;;;;;;13.82;7.07;;;;;;;-146.27;45.90;45850.97;5072186;28;20035;-68
2024/03/25 11:17:51;;;;;;;10.52;4.85;;;;;;;-146.27;40.46;46292.88;5072344;28;20503;-68
2024/03/25 11:20:17;;;;;;;11.20;4.70;;;;;;;-146.27;40.25;46519.84;5059240;28;20489;-74
2024/03/25 11:22:50;;;;;;;6.55;3.45;;;;;;;-146.27;38.98;46647.25;5087837;28;20028;-75
2024/03/25 11:25:16;;;;;;;6.20;3.08;;;;;;;-146.27;37.85;46673.13;5082305;28;20059;-73
2024/03/25 11:27:45;;;;;;;8.05;3.40;;;;;;;-146.27;39.17;46710.94;5070676;28;20028;-74
2024/03/25 11:30:14;;;;;;;11.40;5.47;;;;;;;-146.27;39.62;46671.13;5070790;28;20496;-73
2024/03/25 11:32:52;;;;;;;6.40;2.17;;;;;;;-146.27;36.16;46854.31;5070852;28;20025;-74
2024/03/25 11:35:18;;;;;;;10.30;2.65;;;;;;;-146.27;34.21;46927.97;5080543;28;20029;-75
2024/03/25 11:37:44;;;;;;;5.95;3.80;;;;;;;-146.27;36.14;46916.03;5090823;28;20559;-73
2024/03/25 11:40:12;;;;;;;13.45;5.32;;;;;;;-146.27;37.30;46848.31;5081609;28;20107;-73